Time;durP1;ratioP1;P1;durP2;ratioP2;P2;SDS_P1;SDS_P2;PMS_P1;PMS_P2;Temp;Humidity;BMP_temperature;BMP_pressure;BME280_temperature;BME280_humidity;BME280_pressure;Samples;Min_cycle;Max_cycle;Signal;HPM_P1;HPM_P2
2023/09/19 00:00:00;;;;;;;3.60;1.80;;;;;;;23.33;70.82;100269.16;5030787;27;100810;-72
2023/09/19 00:02:27;;;;;;;5.53;1.95;;;;;;;23.30;71.41;100264.06;5028902;27;97707;-73
2023/09/19 00:04:53;;;;;;;3.58;1.58;;;;;;;23.38;70.73;100267.69;5021719;27;97016;-73
2023/09/19 00:07:21;;;;;;;3.15;1.60;;;;;;;23.26;71.35;100263.50;5030286;27;101280;-74
2023/09/19 00:09:48;;;;;;;6.13;1.92;;;;;;;23.38;70.83;100262.31;5029682;27;101775;-73
2023/09/19 00:12:15;;;;;;;6.55;1.73;;;;;;;23.22;70.94;100270.19;5029701;27;97129;-74
2023/09/19 00:14:42;;;;;;;4.43;1.75;;;;;;;23.17;71.08;100258.97;5029745;27;96919;-74
2023/09/19 00:17:09;;;;;;;4.90;1.45;;;;;;;23.07;72.01;100258.16;5021965;27;99569;-74
2023/09/19 00:19:36;;;;;;;7.55;2.22;;;;;;;23.33;70.69;100253.81;5028701;27;98450;-75
2023/09/19 00:22:03;;;;;;;9.18;1.70;;;;;;;23.29;70.89;100249.72;5027062;27;99224;-74
2023/09/19 00:24:30;;;;;;;2.53;1.50;;;;;;;23.19;71.20;100246.22;5030330;27;96948;-74
2023/09/19 00:26:58;;;;;;;7.70;1.80;;;;;;;23.25;70.88;100263.63;5029542;27;99046;-74
2023/09/19 00:29:28;;;;;;;3.45;1.40;;;;;;;23.31;70.36;100253.09;5030772;27;98769;-74
2023/09/19 00:31:55;;;;;;;5.20;1.58;;;;;;;23.15;71.24;100252.91;5028167;27;97004;-74
2023/09/19 00:34:23;;;;;;;4.10;1.85;;;;;;;23.11;71.07;100251.47;5028733;27;97215;-75
2023/09/19 00:36:49;;;;;;;6.32;1.70;;;;;;;22.86;72.08;100250.25;5028988;27;99124;-74
2023/09/19 00:39:16;;;;;;;2.97;1.50;;;;;;;23.14;71.30;100251.19;5030255;27;98718;-73
2023/09/19 00:41:44;;;;;;;6.30;1.67;;;;;;;22.97;72.10;100254.66;5028908;27;99050;-74
2023/09/19 00:44:11;;;;;;;3.67;1.60;;;;;;;22.93;71.99;100255.91;5029033;27;96994;-75
2023/09/19 00:46:38;;;;;;;5.20;1.60;;;;;;;22.89;72.00;100254.53;5029224;27;100314;-73
2023/09/19 00:49:05;;;;;;;5.63;1.52;;;;;;;22.95;71.50;100253.94;5029507;27;100323;-74
2023/09/19 00:51:33;;;;;;;3.92;1.63;;;;;;;22.96;71.23;100256.50;5028853;27;96823;-73
2023/09/19 00:54:00;;;;;;;5.43;1.88;;;;;;;23.12;70.97;100260.41;5029555;27;96815;-73
2023/09/19 00:56:26;;;;;;;4.07;2.03;;;;;;;23.00;71.29;100254.34;5025567;27;98967;-74
2023/09/19 00:58:53;;;;;;;2.47;1.40;;;;;;;23.00;71.16;100260.59;5029388;27;98099;-73
2023/09/19 01:01:19;;;;;;;3.03;1.73;;;;;;;22.88;71.46;100255.50;5028591;27;96684;-72
2023/09/19 01:03:46;;;;;;;3.28;1.50;;;;;;;22.98;71.51;100270.66;5028904;27;96798;-72
2023/09/19 01:06:12;;;;;;;2.95;1.98;;;;;;;22.98;70.91;100269.81;5028133;27;99229;-75
2023/09/19 01:08:40;;;;;;;10.18;2.17;;;;;;;22.73;72.24;100255.09;5029093;27;98715;-74
2023/09/19 01:11:20;;;;;;;5.38;2.42;;;;;;;22.76;72.04;100251.28;5026814;27;101314;-74
2023/09/19 01:13:57;;;;;;;5.75;1.80;;;;;;;22.77;72.39;100256.53;5030118;27;96873;-75
2023/09/19 01:16:36;;;;;;;;;;;;;;;22.86;71.53;100269.13;5024698;27;98109;-72
2023/09/19 01:19:21;;;;;;;5.88;1.67;;;;;;;22.84;71.15;100263.03;5028302;27;98755;-74
2023/09/19 01:21:59;;;;;;;9.20;1.52;;;;;;;22.83;71.57;100265.88;5030203;27;96764;-74
2023/09/19 01:25:07;;;;;;;2.55;1.50;;;;;;;22.81;71.74;100257.09;5030147;27;96783;-74
2023/09/19 01:28:03;;;;;;;1.73;1.60;;;;;;;22.63;72.44;100265.88;5021838;27;99028;-74
2023/09/19 01:30:35;;;;;;;3.83;1.85;;;;;;;22.90;71.08;100264.31;5016653;27;97482;-74
2023/09/19 01:33:03;;;;;;;3.42;1.73;;;;;;;22.86;71.08;100265.56;5028695;27;96978;-74
2023/09/19 01:35:30;;;;;;;4.72;1.52;;;;;;;22.62;71.83;100274.94;5029104;27;97814;-74
2023/09/19 01:37:56;;;;;;;6.60;1.60;;;;;;;22.84;71.21;100265.72;5029181;27;99194;-73
2023/09/19 01:40:24;;;;;;;3.03;1.45;;;;;;;22.78;71.23;100265.44;5027156;27;97708;-74
2023/09/19 01:42:59;;;;;;;3.47;1.60;;;;;;;22.80;71.50;100266.16;5028264;27;97007;-74
2023/09/19 01:45:34;;;;;;;4.40;1.60;;;;;;;22.73;71.53;100275.81;5023297;27;98686;-74
2023/09/19 01:48:13;;;;;;;4.83;1.50;;;;;;;22.75;71.22;100263.91;5024768;27;99177;-74
2023/09/19 01:50:48;;;;;;;4.30;1.40;;;;;;;22.62;71.96;100274.09;5028335;27;98722;-74
2023/09/19 01:53:22;;;;;;;5.50;1.38;;;;;;;22.82;71.20;100265.03;5027980;27;98172;-73
2023/09/19 01:55:51;;;;;;;3.38;1.42;;;;;;;22.93;70.25;100264.00;5023493;27;96713;-73
2023/09/19 01:58:22;;;;;;;4.30;1.50;;;;;;;22.60;71.89;100268.84;5022728;27;98867;-73
2023/09/19 02:00:51;;;;;;;4.00;1.55;;;;;;;22.78;71.28;100270.81;5027235;27;98931;-74
2023/09/19 02:03:23;;;;;;;2.38;1.40;;;;;;;22.69;71.52;100279.75;5018182;27;96774;-74
2023/09/19 02:05:51;;;;;;;9.77;1.48;;;;;;;22.60;71.81;100279.59;5028943;27;96802;-73
2023/09/19 02:08:19;;;;;;;3.13;1.50;;;;;;;22.77;71.10;100279.94;5028395;27;98833;-74
2023/09/19 02:10:48;;;;;;;8.52;2.22;;;;;;;22.86;70.68;100287.13;5027713;27;101624;-74
2023/09/19 02:13:15;;;;;;;5.28;1.60;;;;;;;22.69;71.35;100283.31;5025331;27;98920;-75
2023/09/19 02:15:44;;;;;;;3.13;1.42;;;;;;;22.71;71.24;100285.84;5030777;27;99837;-74
2023/09/19 02:18:11;;;;;;;4.15;1.58;;;;;;;22.56;71.73;100297.06;5022228;27;99358;-74
2023/09/19 02:20:39;;;;;;;4.47;1.70;;;;;;;22.52;72.24;100301.00;5028302;27;98865;-73
2023/09/19 02:23:06;;;;;;;2.38;1.23;;;;;;;22.35;72.91;100301.72;5030389;27;96779;-74
2023/09/19 02:25:32;;;;;;;6.22;1.65;;;;;;;22.38;73.12;100304.13;5028944;27;96744;-74
2023/09/19 02:28:01;;;;;;;2.38;1.40;;;;;;;22.61;72.00;100310.94;5031599;27;99168;-73
2023/09/19 02:30:27;;;;;;;4.80;2.58;;;;;;;22.65;71.79;100306.09;5022536;27;98810;-73
2023/09/19 02:32:53;;;;;;;6.43;1.73;;;;;;;22.47;72.41;100303.28;5027277;27;96726;-73
2023/09/19 02:35:20;;;;;;;1.88;1.17;;;;;;;22.26;73.35;100303.38;5028384;27;97177;-73
2023/09/19 02:37:48;;;;;;;5.82;1.60;;;;;;;22.51;72.24;100303.84;5027182;27;99389;-74
2023/09/19 02:40:19;;;;;;;7.75;1.75;;;;;;;22.54;72.23;100307.09;5027859;27;99477;-73
2023/09/19 02:42:48;;;;;;;5.05;1.75;;;;;;;22.55;72.34;100316.03;5026125;27;96866;-73
2023/09/19 02:45:15;;;;;;;3.83;1.73;;;;;;;22.45;73.20;100317.88;5031340;27;96871;-73
2023/09/19 02:47:41;;;;;;;4.13;1.20;;;;;;;22.39;73.02;100321.97;5027356;27;99046;-73
2023/09/19 02:50:09;;;;;;;6.22;1.60;;;;;;;22.25;73.74;100322.41;5030752;27;99273;-73
2023/09/19 02:52:35;;;;;;;5.93;1.90;;;;;;;21.96;74.75;100313.38;5031943;27;96944;-73
2023/09/19 02:55:05;;;;;;;5.03;1.85;;;;;;;22.01;75.07;100328.13;5032005;27;97047;-73
2023/09/19 02:57:34;;;;;;;2.92;1.33;;;;;;;22.00;75.02;100326.41;5031197;27;99292;-73
2023/09/19 03:00:01;;;;;;;3.10;1.45;;;;;;;22.12;74.38;100324.50;5031598;27;99165;-73
2023/09/19 03:02:27;;;;;;;2.33;1.50;;;;;;;22.11;74.50;100336.25;5031096;27;97121;-74
2023/09/19 03:04:54;;;;;;;2.75;1.30;;;;;;;22.00;74.39;100337.19;5031808;27;96822;-74
2023/09/19 03:07:20;;;;;;;2.90;1.60;;;;;;;22.12;73.87;100340.63;5031610;27;98655;-74
2023/09/19 03:09:47;;;;;;;5.97;1.65;;;;;;;22.00;73.62;100339.00;5031376;27;100992;-72
2023/09/19 03:12:15;;;;;;;4.00;1.30;;;;;;;21.87;73.56;100339.22;5030481;27;96735;-74
2023/09/19 03:14:42;;;;;;;2.85;1.30;;;;;;;22.05;72.89;100339.47;5030695;27;97356;-74
2023/09/19 03:17:09;;;;;;;4.68;1.10;;;;;;;22.02;72.13;100342.44;5030431;27;99055;-74
2023/09/19 03:19:37;;;;;;;3.17;1.58;;;;;;;21.87;73.07;100341.91;5032084;27;99371;-74
2023/09/19 03:22:04;;;;;;;4.75;1.25;;;;;;;21.92;72.57;100341.53;5025027;27;96837;-74
2023/09/19 03:24:33;;;;;;;5.22;1.60;;;;;;;21.95;72.16;100343.94;5031292;27;96909;-75
2023/09/19 03:26:59;;;;;;;3.75;1.40;;;;;;;21.69;72.84;100355.16;5031229;27;99579;-74
2023/09/19 03:29:27;;;;;;;4.10;1.38;;;;;;;21.77;72.36;100351.81;5031178;27;96942;-75
2023/09/19 03:31:54;;;;;;;4.55;1.48;;;;;;;21.86;71.64;100359.03;5031082;27;96725;-75
2023/09/19 03:34:20;;;;;;;1.92;1.10;;;;;;;21.81;71.18;100354.06;5029709;27;96966;-75
2023/09/19 03:36:47;;;;;;;1.92;1.20;;;;;;;21.87;71.22;100356.22;5031150;27;97743;-74
2023/09/19 03:39:14;;;;;;;3.83;1.40;;;;;;;21.75;70.53;100359.16;5030217;27;98760;-74
2023/09/19 03:41:41;;;;;;;3.35;1.30;;;;;;;21.73;70.54;100361.97;5030476;27;97567;-74
2023/09/19 03:44:09;;;;;;;2.92;1.00;;;;;;;21.91;69.91;100361.34;5030695;27;97177;-74
2023/09/19 03:46:38;;;;;;;2.30;1.35;;;;;;;21.90;68.94;100368.56;5030291;27;99239;-72
2023/09/19 03:49:05;;;;;;;4.47;1.17;;;;;;;21.68;69.45;100372.28;5030923;27;99108;-74
2023/09/19 03:51:31;;;;;;;3.33;1.00;;;;;;;21.89;68.40;100377.59;5029606;27;97265;-74
2023/09/19 03:53:57;;;;;;;2.40;1.15;;;;;;;21.77;68.00;100376.00;5028092;27;96768;-74
2023/09/19 03:56:24;;;;;;;4.10;1.35;;;;;;;21.68;68.09;100377.66;5030683;27;99143;-74
2023/09/19 03:58:50;;;;;;;1.48;1.25;;;;;;;21.68;67.84;100374.97;5028496;27;97701;-73
2023/09/19 04:01:18;;;;;;;1.58;0.80;;;;;;;21.76;67.49;100380.53;5029577;27;96741;-74
2023/09/19 04:03:51;;;;;;;3.55;0.85;;;;;;;21.86;66.23;100376.03;5024141;27;96903;-74
2023/09/19 04:06:18;;;;;;;4.32;0.82;;;;;;;21.63;66.06;100384.41;5028766;27;98944;-73
2023/09/19 04:08:46;;;;;;;3.45;0.80;;;;;;;21.65;66.51;100383.31;5023044;27;100842;-74
2023/09/19 04:11:12;;;;;;;2.38;0.95;;;;;;;21.64;66.22;100384.28;5028894;27;96765;-74
2023/09/19 04:13:39;;;;;;;4.72;1.00;;;;;;;21.69;65.53;100386.56;5029786;27;96938;-75
2023/09/19 04:16:06;;;;;;;3.53;1.15;;;;;;;21.87;64.93;100379.56;5029936;27;98356;-74
2023/09/19 04:18:37;;;;;;;4.60;1.10;;;;;;;21.72;64.40;100389.00;5028905;27;98056;-74
2023/09/19 04:21:05;;;;;;;1.73;0.90;;;;;;;21.71;64.50;100387.31;5031911;27;97257;-75
2023/09/19 04:23:31;;;;;;;1.63;1.08;;;;;;;21.52;64.71;100390.75;5030450;27;96930;-74
2023/09/19 04:25:58;;;;;;;5.97;1.13;;;;;;;21.59;64.39;100388.38;5029521;27;101390;-73
2023/09/19 04:28:25;;;;;;;2.47;1.00;;;;;;;21.38;65.72;100397.31;5029689;27;98780;-74
2023/09/19 04:30:51;;;;;;;5.13;1.17;;;;;;;21.41;65.32;100388.97;5029728;27;98791;-72
2023/09/19 04:33:18;;;;;;;3.15;0.90;;;;;;;21.53;64.60;100396.97;5025825;27;96896;-73
2023/09/19 04:35:44;;;;;;;2.15;1.00;;;;;;;21.57;64.36;100398.41;5029445;27;99560;-73
2023/09/19 04:38:13;;;;;;;2.95;1.10;;;;;;;21.60;64.21;100403.50;5030122;27;99568;-74
2023/09/19 04:40:40;;;;;;;2.60;1.20;;;;;;;21.69;63.82;100408.09;5027186;27;96747;-73
2023/09/19 04:43:07;;;;;;;3.03;1.30;;;;;;;21.61;63.95;100411.44;5025168;27;96861;-74
2023/09/19 04:45:34;;;;;;;5.43;1.25;;;;;;;21.63;63.78;100412.16;5028175;27;99667;-74
2023/09/19 04:48:01;;;;;;;2.63;1.30;;;;;;;21.61;63.69;100416.81;5020912;27;99350;-74
2023/09/19 04:50:27;;;;;;;3.88;1.20;;;;;;;21.69;63.46;100414.31;5025155;27;96853;-73
2023/09/19 04:52:54;;;;;;;1.80;1.10;;;;;;;21.48;63.95;100411.66;5030729;27;97331;-76
2023/09/19 04:55:22;;;;;;;0.88;0.70;;;;;;;21.15;65.07;100427.91;5029320;27;99288;-74
2023/09/19 04:57:50;;;;;;;1.15;0.70;;;;;;;21.46;64.36;100420.84;5030819;27;99957;-75
2023/09/19 05:00:19;;;;;;;3.92;0.95;;;;;;;21.31;64.40;100422.16;5028041;27;97175;-74
2023/09/19 05:02:46;;;;;;;2.65;1.10;;;;;;;21.42;64.19;100424.75;5030919;27;97179;-74
2023/09/19 05:05:16;;;;;;;1.63;0.82;;;;;;;21.38;64.12;100439.44;5026650;27;99467;-74
2023/09/19 05:07:43;;;;;;;5.13;1.17;;;;;;;21.39;63.99;100438.47;5028959;27;98800;-74
2023/09/19 05:10:11;;;;;;;4.28;0.98;;;;;;;21.35;64.05;100443.25;5027082;27;97145;-74
2023/09/19 05:12:39;;;;;;;4.53;1.23;;;;;;;21.31;64.51;100446.34;5023258;27;96999;-74
2023/09/19 05:15:07;;;;;;;7.00;1.10;;;;;;;21.26;64.21;100445.88;5026627;27;97741;-74
2023/09/19 05:17:35;;;;;;;5.47;0.90;;;;;;;21.41;63.68;100453.47;5027540;27;99237;-74
2023/09/19 05:20:11;;;;;;;4.68;1.17;;;;;;;21.13;64.51;100448.72;5027699;27;97750;-74
2023/09/19 05:22:39;;;;;;;;;;;;;;;21.26;63.99;100452.09;5028285;27;97980;-74
2023/09/19 05:25:07;;;;;;;5.97;1.15;;;;;;;21.24;64.03;100466.63;5028725;27;99083;-74
2023/09/19 05:27:34;;;;;;;4.82;1.42;;;;;;;21.28;63.95;100468.94;5029169;27;97648;-73
2023/09/19 05:30:02;;;;;;;5.45;1.10;;;;;;;21.24;63.80;100472.00;5028707;27;98575;-74
2023/09/19 05:32:28;;;;;;;3.53;1.15;;;;;;;21.43;63.04;100467.66;5024166;27;96983;-74
2023/09/19 05:34:56;;;;;;;2.22;1.00;;;;;;;20.93;64.49;100471.88;5022665;27;99279;-73
2023/09/19 05:37:23;;;;;;;3.00;1.27;;;;;;;21.06;64.18;100469.00;5028493;27;98884;-74
2023/09/19 05:39:49;;;;;;;2.20;1.10;;;;;;;21.23;63.84;100473.00;5029161;27;97258;-73
2023/09/19 05:42:16;;;;;;;4.60;1.65;;;;;;;21.33;63.16;100477.44;5029085;27;97302;-75
2023/09/19 05:44:42;;;;;;;2.63;1.13;;;;;;;21.33;62.96;100487.38;5028658;27;100184;-74
2023/09/19 05:47:10;;;;;;;3.58;1.08;;;;;;;21.14;63.72;100489.84;5027841;27;98590;-74
2023/09/19 05:49:38;;;;;;;2.13;1.23;;;;;;;21.17;63.88;100492.31;5028540;27;96743;-74
2023/09/19 05:52:06;;;;;;;4.47;1.25;;;;;;;21.15;63.74;100505.84;5026206;27;97190;-75
2023/09/19 05:54:33;;;;;;;2.17;1.65;;;;;;;21.27;63.32;100501.28;5027090;27;100216;-75
2023/09/19 05:56:59;;;;;;;3.67;1.15;;;;;;;21.24;63.21;100509.63;5028235;27;98290;-74
2023/09/19 05:59:25;;;;;;;8.60;1.50;;;;;;;21.43;62.62;100507.97;5022529;27;97795;-75
2023/09/19 06:01:52;;;;;;;5.85;1.30;;;;;;;21.41;62.75;100519.81;5028454;27;96882;-74
2023/09/19 06:04:21;;;;;;;4.97;1.25;;;;;;;21.45;62.56;100513.22;5025986;27;99937;-74
2023/09/19 06:06:48;;;;;;;3.45;1.10;;;;;;;21.77;61.76;100518.53;5021609;27;98023;-75
2023/09/19 06:09:15;;;;;;;5.18;1.25;;;;;;;21.64;61.37;100521.41;5022563;27;97713;-73
2023/09/19 06:11:42;;;;;;;5.97;1.30;;;;;;;21.55;61.63;100527.56;5027453;28;97753;-73
2023/09/19 06:14:10;;;;;;;7.82;1.95;;;;;;;21.53;62.01;100536.75;5025875;27;98825;-73
2023/09/19 06:16:37;;;;;;;4.03;1.35;;;;;;;21.74;61.21;100538.47;5039275;27;100310;-75
2023/09/19 06:19:06;;;;;;;5.10;1.40;;;;;;;21.73;61.27;100528.69;5026203;27;96759;-73
2023/09/19 06:21:34;;;;;;;5.43;1.55;;;;;;;21.67;61.44;100531.91;5031062;27;96813;-75
2023/09/19 06:24:01;;;;;;;6.20;1.23;;;;;;;21.81;60.70;100536.09;5033682;27;101923;-75
2023/09/19 06:26:28;;;;;;;5.40;1.20;;;;;;;21.81;60.61;100539.66;5020200;27;99429;-75
2023/09/19 06:28:55;;;;;;;4.55;1.67;;;;;;;21.87;60.39;100544.50;5020635;27;97186;-74
2023/09/19 06:31:22;;;;;;;2.15;1.35;;;;;;;21.98;59.54;100543.63;5023653;27;96874;-74
2023/09/19 06:33:50;;;;;;;4.10;1.13;;;;;;;22.18;59.11;100544.59;5018633;27;97625;-74
2023/09/19 06:36:16;;;;;;;4.63;1.15;;;;;;;22.08;59.21;100543.69;5022794;27;98052;-74
2023/09/19 06:38:44;;;;;;;5.80;1.65;;;;;;;22.38;57.55;100549.09;5028809;27;97728;-74
2023/09/19 06:41:12;;;;;;;3.13;1.52;;;;;;;22.39;57.80;100555.31;5028930;27;97010;-74
2023/09/19 06:43:39;;;;;;;6.88;1.50;;;;;;;22.71;57.55;100564.09;5020082;27;98996;-74
2023/09/19 06:46:07;;;;;;;4.65;1.50;;;;;;;22.98;56.54;100563.50;5022246;27;99259;-74
2023/09/19 06:48:33;;;;;;;4.10;1.60;;;;;;;23.08;55.71;100564.38;5027545;27;97246;-76
2023/09/19 06:51:05;;;;;;;2.25;1.38;;;;;;;22.98;55.38;100564.34;5017213;27;96854;-74
2023/09/19 06:53:32;;;;;;;3.67;1.85;;;;;;;23.30;54.48;100566.81;5020710;27;101041;-75
2023/09/19 06:56:00;;;;;;;3.42;1.33;;;;;;;23.39;54.05;100565.13;5020556;27;98982;-74
2023/09/19 06:58:26;;;;;;;5.15;1.83;;;;;;;23.68;53.10;100576.81;5019442;27;96986;-73
2023/09/19 07:00:53;;;;;;;3.63;1.60;;;;;;;23.76;52.19;100573.41;5015539;27;96845;-74
2023/09/19 07:03:21;;;;;;;6.65;1.40;;;;;;;24.07;51.55;100577.63;5021312;27;97840;-74
2023/09/19 07:05:49;;;;;;;6.10;1.40;;;;;;;23.90;51.68;100572.94;5028314;27;100685;-74
2023/09/19 07:08:15;;;;;;;5.13;1.42;;;;;;;23.43;53.31;100577.34;5021620;27;96904;-73
2023/09/19 07:10:48;;;;;;;3.75;1.60;;;;;;;23.42;53.17;100581.03;5025861;27;96811;-74
2023/09/19 07:13:17;;;;;;;2.83;1.40;;;;;;;23.79;52.41;100586.59;5021467;27;99989;-74
2023/09/19 07:15:47;;;;;;;3.45;1.48;;;;;;;23.64;51.73;100599.66;5024509;27;99005;-73
2023/09/19 07:18:14;;;;;;;3.70;1.40;;;;;;;23.39;52.32;100587.56;5023961;27;96702;-75
2023/09/19 07:20:45;;;;;;;3.22;1.35;;;;;;;23.42;52.65;100591.81;5019878;27;97203;-75
2023/09/19 07:23:13;;;;;;;7.10;1.50;;;;;;;23.71;52.20;100602.66;5018461;27;98906;-74
2023/09/19 07:25:40;;;;;;;7.05;2.10;;;;;;;23.44;52.52;100601.47;5020839;27;98841;-75
2023/09/19 07:28:07;;;;;;;5.22;1.60;;;;;;;23.24;52.91;100599.72;5020921;27;96837;-76
2023/09/19 07:30:37;;;;;;;8.10;1.85;;;;;;;22.91;53.99;100602.75;5024401;27;97235;-76
2023/09/19 07:33:04;;;;;;;8.73;1.55;;;;;;;22.89;53.67;100602.06;5025296;27;101463;-75
2023/09/19 07:35:31;;;;;;;3.35;1.33;;;;;;;23.12;53.34;100610.75;5030501;27;101697;-75
2023/09/19 07:38:01;;;;;;;4.50;1.77;;;;;;;23.10;53.54;100607.38;5028213;28;100525;-74
2023/09/19 07:40:28;;;;;;;4.40;1.70;;;;;;;22.93;53.48;100619.63;5031277;27;96874;-74
2023/09/19 07:42:55;;;;;;;5.55;1.83;;;;;;;23.01;53.15;100600.94;5027569;27;99059;-75
2023/09/19 07:45:22;;;;;;;6.18;1.80;;;;;;;23.00;52.13;100613.56;5023160;27;98890;-73
2023/09/19 07:47:51;;;;;;;4.20;1.80;;;;;;;23.10;51.16;100608.22;5022940;27;96845;-73
2023/09/19 07:50:20;;;;;;;3.15;2.05;;;;;;;23.21;51.45;100605.41;5024057;27;96951;-73
2023/09/19 07:52:47;;;;;;;10.52;2.40;;;;;;;23.38;50.44;100620.91;5024873;27;99612;-74
2023/09/19 07:55:17;;;;;;;7.85;2.13;;;;;;;23.71;48.72;100635.88;5031525;27;96765;-75
2023/09/19 07:57:44;;;;;;;8.68;2.17;;;;;;;23.72;48.35;100637.56;5027371;27;96834;-73
2023/09/19 08:00:11;;;;;;;8.98;2.00;;;;;;;24.12;47.43;100637.44;5026616;27;97279;-74
2023/09/19 08:02:38;;;;;;;11.38;2.63;;;;;;;23.52;48.19;100640.38;5023048;27;99225;-75
2023/09/19 08:05:07;;;;;;;5.28;2.40;;;;;;;23.77;47.82;100637.16;5018738;27;101748;-74
2023/09/19 08:07:36;;;;;;;5.75;2.08;;;;;;;23.57;48.41;100633.59;5026062;27;96905;-74
2023/09/19 08:10:02;;;;;;;9.05;2.25;;;;;;;23.51;48.36;100642.22;5018535;27;97606;-74
2023/09/19 08:12:29;;;;;;;7.05;2.60;;;;;;;23.90;47.97;100635.00;5031750;27;98170;-74
2023/09/19 08:14:56;;;;;;;4.90;2.10;;;;;;;23.94;47.40;100633.75;5028319;27;99416;-74
2023/09/19 08:17:23;;;;;;;5.90;2.10;;;;;;;23.30;48.37;100636.09;5031796;27;96886;-74
2023/09/19 08:19:52;;;;;;;9.85;2.25;;;;;;;22.45;49.14;100628.31;5029900;27;97053;-74
2023/09/19 08:22:21;;;;;;;5.93;1.80;;;;;;;22.29;50.33;100637.84;5030621;27;99420;-74
2023/09/19 08:24:48;;;;;;;5.63;2.08;;;;;;;22.74;49.86;100639.28;5023264;27;99283;-75
2023/09/19 08:27:15;;;;;;;8.27;1.80;;;;;;;23.07;49.02;100638.13;5031155;27;96789;-75
2023/09/19 08:29:42;;;;;;;5.60;2.00;;;;;;;22.88;49.59;100635.38;5024734;27;97496;-74
2023/09/19 08:32:08;;;;;;;9.30;1.85;;;;;;;22.76;49.92;100639.16;5030140;27;99004;-74
2023/09/19 08:34:38;;;;;;;7.03;1.88;;;;;;;23.01;49.13;100649.47;5022532;27;98768;-74
2023/09/19 08:37:04;;;;;;;6.35;2.33;;;;;;;22.73;49.61;100642.09;5024894;27;96763;-76
2023/09/19 08:39:33;;;;;;;6.65;1.77;;;;;;;22.90;49.57;100653.13;5031820;27;96944;-74
2023/09/19 08:42:00;;;;;;;6.35;1.85;;;;;;;23.00;49.13;100662.06;5031307;27;99294;-75
2023/09/19 08:44:27;;;;;;;8.73;2.30;;;;;;;23.26;47.97;100646.28;5028210;27;99374;-74
2023/09/19 08:46:56;;;;;;;4.95;1.88;;;;;;;23.54;47.46;100655.44;5026951;27;97357;-75
2023/09/19 08:49:30;;;;;;;14.45;1.90;;;;;;;23.70;46.65;100654.88;5022740;27;97349;-74
2023/09/19 08:52:09;;;;;;;5.97;1.90;;;;;;;23.02;47.08;100659.25;5033487;27;99298;-73
2023/09/19 08:54:41;;;;;;;9.30;2.50;;;;;;;22.76;48.04;100658.00;5033901;27;100723;-74
2023/09/19 08:57:10;;;;;;;10.65;2.20;;;;;;;22.98;47.26;100653.25;5028658;27;96829;-73
2023/09/19 08:59:39;;;;;;;7.78;2.00;;;;;;;22.87;47.24;100655.22;5031890;27;96895;-75
2023/09/19 09:02:12;;;;;;;6.85;2.50;;;;;;;23.19;46.55;100665.81;5032489;27;100706;-75
2023/09/19 09:04:39;;;;;;;9.10;1.92;;;;;;;22.84;47.60;100668.97;5031239;27;98937;-75
2023/09/19 09:07:06;;;;;;;6.40;1.83;;;;;;;22.80;47.40;100656.75;5032946;27;96729;-75
2023/09/19 09:09:32;;;;;;;7.68;2.03;;;;;;;23.01;46.89;100669.19;5026898;27;98095;-74
2023/09/19 09:12:00;;;;;;;8.65;2.50;;;;;;;22.71;47.02;100671.00;5022553;27;99554;-75
2023/09/19 09:14:26;;;;;;;6.43;2.00;;;;;;;23.02;46.52;100680.81;5031686;27;99105;-74
2023/09/19 09:16:56;;;;;;;5.00;1.95;;;;;;;22.94;46.40;100680.63;5022610;27;96841;-73
2023/09/19 09:19:24;;;;;;;3.63;1.65;;;;;;;23.36;45.49;100684.91;5026790;27;96981;-75
2023/09/19 09:21:51;;;;;;;4.40;2.00;;;;;;;23.84;44.27;100684.16;5024596;27;98996;-75
2023/09/19 09:24:33;;;;;;;10.13;2.13;;;;;;;23.52;44.06;100683.53;5023953;27;97711;-74
2023/09/19 09:27:04;;;;;;;12.45;2.78;;;;;;;23.66;44.01;100688.53;5027079;27;97109;-74
2023/09/19 09:29:44;;;;;;;5.60;2.20;;;;;;;24.09;42.78;100686.28;5032990;27;97663;-73
2023/09/19 09:32:22;;;;;;;6.28;2.22;;;;;;;23.75;43.12;100685.88;5025926;27;97466;-73
2023/09/19 09:34:51;;;;;;;9.82;2.38;;;;;;;23.37;43.00;100686.59;5030579;27;97606;-74
2023/09/19 09:37:19;;;;;;;9.45;2.30;;;;;;;23.24;43.66;100683.28;5027229;27;97868;-74
2023/09/19 09:39:58;;;;;;;6.70;2.10;;;;;;;23.67;43.25;100679.47;5031884;27;97580;-74
2023/09/19 09:42:33;;;;;;;5.63;2.60;;;;;;;24.01;42.26;100685.31;5027655;27;99321;-74
2023/09/19 09:45:17;;;;;;;10.23;2.73;;;;;;;24.11;41.12;100676.22;5022467;27;98023;-74
2023/09/19 09:47:55;;;;;;;5.85;2.10;;;;;;;24.16;41.06;100690.13;5020058;27;96968;-73
2023/09/19 09:50:41;;;;;;;10.30;2.55;;;;;;;23.97;41.25;100695.53;5015616;27;96983;-73
2023/09/19 09:53:25;;;;;;;7.75;2.45;;;;;;;23.87;41.09;100691.13;5027506;27;99357;-74
2023/09/19 09:56:06;;;;;;;9.25;2.25;;;;;;;24.15;40.47;100687.59;5021280;27;98900;-74
2023/09/19 09:58:35;;;;;;;8.25;2.45;;;;;;;24.26;39.70;100690.16;5022427;27;97030;-75
2023/09/19 10:01:08;;;;;;;6.60;2.08;;;;;;;24.01;39.42;100696.97;5026169;27;97449;-73
2023/09/19 10:03:39;;;;;;;7.45;2.28;;;;;;;23.95;39.86;100697.53;5023220;27;99261;-75
2023/09/19 10:06:24;;;;;;;9.82;2.38;;;;;;;23.88;39.64;100690.13;5014168;27;99117;-75
2023/09/19 10:09:10;;;;;;;10.60;2.50;;;;;;;24.21;39.09;100703.25;5019745;27;97029;-75
2023/09/19 10:11:43;;;;;;;8.10;2.40;;;;;;;24.71;38.52;100701.16;5016584;27;96878;-74
2023/09/19 10:14:13;;;;;;;13.52;2.90;;;;;;;24.76;37.23;100698.88;5025154;27;99213;-74
2023/09/19 10:16:45;;;;;;;9.52;2.97;;;;;;;24.54;36.75;100705.50;5027618;27;98976;-74
2023/09/19 10:19:16;;;;;;;4.65;2.00;;;;;;;23.69;37.32;100691.81;5025198;27;99407;-73
2023/09/19 10:21:44;;;;;;;6.70;2.35;;;;;;;23.80;38.07;100696.22;5023104;27;97478;-74
2023/09/19 10:24:12;;;;;;;11.45;2.55;;;;;;;23.75;37.70;100695.81;5026563;27;97886;-75
2023/09/19 10:26:43;;;;;;;8.65;2.55;;;;;;;24.03;38.23;100692.25;5023497;27;101419;-74
2023/09/19 10:29:13;;;;;;;13.70;2.35;;;;;;;24.10;38.47;100697.94;5021040;27;98295;-74
2023/09/19 10:31:47;;;;;;;7.85;2.65;;;;;;;24.10;37.31;100696.09;5026859;27;97270;-74
2023/09/19 10:34:15;;;;;;;5.75;2.42;;;;;;;23.87;37.91;100689.28;5012538;27;99291;-74
2023/09/19 10:36:46;;;;;;;6.50;2.58;;;;;;;24.07;37.71;100693.69;5027678;27;98807;-75
2023/09/19 10:39:18;;;;;;;7.35;2.50;;;;;;;24.17;37.82;100686.44;5020904;27;96786;-74
2023/09/19 10:41:53;;;;;;;7.95;2.03;;;;;;;24.50;37.43;100676.19;5020148;27;96736;-75
2023/09/19 10:44:23;;;;;;;5.50;2.30;;;;;;;24.86;36.33;100682.66;5022950;27;97908;-73
2023/09/19 10:46:52;;;;;;;10.80;2.33;;;;;;;25.04;35.35;100680.88;5015033;27;97779;-74
2023/09/19 10:49:19;;;;;;;11.98;2.72;;;;;;;24.26;36.16;100683.91;5025738;27;97957;-73
2023/09/19 10:51:49;;;;;;;7.97;2.30;;;;;;;24.62;35.13;100680.41;5026824;27;96950;-74
2023/09/19 10:54:19;;;;;;;10.02;2.35;;;;;;;24.71;34.64;100684.97;5024963;27;99091;-75
2023/09/19 10:56:50;;;;;;;31.50;15.82;;;;;;;24.71;34.50;100693.06;5026991;27;98826;-74
2023/09/19 10:59:20;;;;;;;26.08;13.32;;;;;;;24.44;34.67;100690.28;5029755;27;96805;-74
2023/09/19 11:01:51;;;;;;;6.85;3.13;;;;;;;24.72;34.72;100694.78;5026608;27;97139;-75
2023/09/19 11:04:29;;;;;;;8.77;2.92;;;;;;;24.70;33.72;100694.06;5024998;27;98910;-74
2023/09/19 11:07:04;;;;;;;7.20;2.03;;;;;;;24.63;33.94;100701.03;5029067;27;100183;-74
2023/09/19 11:09:47;;;;;;;8.43;2.60;;;;;;;24.79;33.81;100703.16;5028507;27;96720;-74
2023/09/19 11:12:49;;;;;;;9.13;2.50;;;;;;;24.39;34.23;100693.41;5026792;27;96976;-73
2023/09/19 11:15:49;;;;;;;7.28;2.30;;;;;;;24.40;34.54;100702.38;5026362;27;98929;-73
2023/09/19 11:18:50;;;;;;;9.70;2.30;;;;;;;23.92;34.95;100703.19;5028147;27;99451;-74
2023/09/19 11:21:58;;;;;;;6.55;2.10;;;;;;;24.03;33.95;100702.19;5024815;27;99147;-75
2023/09/19 11:24:35;;;;;;;;;;;;;;;24.19;34.13;100702.53;5020880;27;97244;-74
2023/09/19 11:27:17;;;;;;;5.25;2.08;;;;;;;24.33;34.20;100712.03;5031281;27;99294;-74
2023/09/19 11:29:44;;;;;;;9.07;2.70;;;;;;;24.13;34.91;100706.63;5029545;27;99020;-74
2023/09/19 11:32:11;;;;;;;10.82;2.53;;;;;;;24.23;34.74;100709.34;5028870;27;97912;-74
2023/09/19 11:34:50;;;;;;;7.50;2.55;;;;;;;24.55;34.34;100706.31;5026003;27;96766;-73